sensor_id;sensor_type;location;lat;lon;timestamp;P1;durP1;ratioP1;P2;durP2;ratioP2
43744;SDS011;29359;53.048;8.732;2024-02-26T00:00:06;8.15;;;7.20;;
43744;SDS011;29359;53.048;8.732;2024-02-26T00:02:10;9.10;;;7.50;;
43744;SDS011;29359;53.048;8.732;2024-02-26T00:04:12;16.25;;;10.45;;
43744;SDS011;29359;53.048;8.732;2024-02-26T00:06:14;15.32;;;10.10;;
43744;SDS011;29359;53.048;8.732;2024-02-26T00:08:16;15.13;;;9.93;;
43744;SDS011;29359;53.048;8.732;2024-02-26T00:10:18;13.65;;;9.75;;
43744;SDS011;29359;53.048;8.732;2024-02-26T00:12:20;14.25;;;9.98;;
43744;SDS011;29359;53.048;8.732;2024-02-26T00:14:22;12.30;;;8.38;;
43744;SDS011;29359;53.048;8.732;2024-02-26T00:16:24;13.80;;;8.30;;
43744;SDS011;29359;53.048;8.732;2024-02-26T00:18:26;8.82;;;7.60;;
43744;SDS011;29359;53.048;8.732;2024-02-26T00:20:28;9.85;;;8.13;;
43744;SDS011;29359;53.048;8.732;2024-02-26T00:22:32;8.80;;;7.35;;
43744;SDS011;29359;53.048;8.732;2024-02-26T00:24:34;9.40;;;7.20;;
43744;SDS011;29359;53.048;8.732;2024-02-26T00:26:36;6.95;;;6.35;;
43744;SDS011;29359;53.048;8.732;2024-02-26T00:28:37;10.15;;;6.47;;
43744;SDS011;29359;53.048;8.732;2024-02-26T00:30:39;7.35;;;6.07;;
43744;SDS011;29359;53.048;8.732;2024-02-26T00:32:41;10.70;;;6.65;;
43744;SDS011;29359;53.048;8.732;2024-02-26T00:34:43;6.80;;;6.15;;
43744;SDS011;29359;53.048;8.732;2024-02-26T00:36:45;6.95;;;6.35;;
43744;SDS011;29359;53.048;8.732;2024-02-26T00:38:47;6.72;;;5.97;;
43744;SDS011;29359;53.048;8.732;2024-02-26T00:40:52;8.25;;;6.00;;
43744;SDS011;29359;53.048;8.732;2024-02-26T00:42:54;7.22;;;6.50;;
43744;SDS011;29359;53.048;8.732;2024-02-26T00:44:55;7.25;;;6.55;;
43744;SDS011;29359;53.048;8.732;2024-02-26T00:46:57;12.68;;;6.82;;
43744;SDS011;29359;53.048;8.732;2024-02-26T00:48:59;6.90;;;5.80;;
43744;SDS011;29359;53.048;8.732;2024-02-26T00:51:02;8.00;;;6.60;;
43744;SDS011;29359;53.048;8.732;2024-02-26T00:53:06;6.63;;;6.03;;
43744;SDS011;29359;53.048;8.732;2024-02-26T00:55:10;7.50;;;6.70;;
43744;SDS011;29359;53.048;8.732;2024-02-26T00:57:12;7.70;;;6.47;;
43744;SDS011;29359;53.048;8.732;2024-02-26T00:59:13;7.82;;;6.07;;
43744;SDS011;29359;53.048;8.732;2024-02-26T01:01:15;6.68;;;5.97;;
43744;SDS011;29359;53.048;8.732;2024-02-26T01:03:17;7.20;;;6.60;;
43744;SDS011;29359;53.048;8.732;2024-02-26T01:05:20;9.45;;;7.05;;
43744;SDS011;29359;53.048;8.732;2024-02-26T01:07:21;10.52;;;7.07;;
43744;SDS011;29359;53.048;8.732;2024-02-26T01:09:23;10.32;;;7.47;;
43744;SDS011;29359;53.048;8.732;2024-02-26T01:11:25;9.43;;;7.15;;
43744;SDS011;29359;53.048;8.732;2024-02-26T01:13:27;8.30;;;7.00;;
43744;SDS011;29359;53.048;8.732;2024-02-26T01:15:29;8.43;;;6.90;;
43744;SDS011;29359;53.048;8.732;2024-02-26T01:17:31;7.95;;;7.15;;
43744;SDS011;29359;53.048;8.732;2024-02-26T01:19:32;7.57;;;6.78;;
43744;SDS011;29359;53.048;8.732;2024-02-26T01:21:34;8.40;;;7.53;;
43744;SDS011;29359;53.048;8.732;2024-02-26T01:23:36;8.93;;;7.65;;
43744;SDS011;29359;53.048;8.732;2024-02-26T01:25:38;8.30;;;7.38;;
43744;SDS011;29359;53.048;8.732;2024-02-26T01:27:40;14.07;;;7.47;;
43744;SDS011;29359;53.048;8.732;2024-02-26T01:29:44;9.38;;;6.95;;
43744;SDS011;29359;53.048;8.732;2024-02-26T01:31:46;8.18;;;7.25;;
43744;SDS011;29359;53.048;8.732;2024-02-26T01:33:48;8.82;;;7.93;;
43744;SDS011;29359;53.048;8.732;2024-02-26T01:35:50;10.52;;;7.47;;
43744;SDS011;29359;53.048;8.732;2024-02-26T01:37:52;10.15;;;7.30;;
43744;SDS011;29359;53.048;8.732;2024-02-26T01:39:53;8.40;;;7.60;;
43744;SDS011;29359;53.048;8.732;2024-02-26T01:41:55;9.25;;;7.20;;
43744;SDS011;29359;53.048;8.732;2024-02-26T01:43:57;7.38;;;6.55;;
43744;SDS011;29359;53.048;8.732;2024-02-26T01:45:59;8.23;;;7.15;;
43744;SDS011;29359;53.048;8.732;2024-02-26T01:48:00;7.57;;;6.45;;
43744;SDS011;29359;53.048;8.732;2024-02-26T01:50:03;6.95;;;6.20;;
43744;SDS011;29359;53.048;8.732;2024-02-26T01:52:05;6.22;;;5.63;;
43744;SDS011;29359;53.048;8.732;2024-02-26T01:54:08;7.78;;;6.70;;
43744;SDS011;29359;53.048;8.732;2024-02-26T01:56:11;7.20;;;6.50;;
43744;SDS011;29359;53.048;8.732;2024-02-26T01:58:14;8.65;;;7.57;;
43744;SDS011;29359;53.048;8.732;2024-02-26T02:00:16;8.70;;;7.53;;
43744;SDS011;29359;53.048;8.732;2024-02-26T02:02:19;8.23;;;7.03;;
43744;SDS011;29359;53.048;8.732;2024-02-26T02:04:22;8.75;;;7.68;;
43744;SDS011;29359;53.048;8.732;2024-02-26T02:06:26;7.68;;;6.90;;
43744;SDS011;29359;53.048;8.732;2024-02-26T02:08:29;8.20;;;7.40;;
43744;SDS011;29359;53.048;8.732;2024-02-26T02:10:31;8.55;;;7.47;;
43744;SDS011;29359;53.048;8.732;2024-02-26T02:12:33;8.80;;;7.30;;
43744;SDS011;29359;53.048;8.732;2024-02-26T02:14:35;8.43;;;7.55;;
43744;SDS011;29359;53.048;8.732;2024-02-26T02:16:37;8.65;;;7.57;;
43744;SDS011;29359;53.048;8.732;2024-02-26T02:18:39;8.65;;;7.75;;
43744;SDS011;29359;53.048;8.732;2024-02-26T02:20:41;8.13;;;7.38;;
43744;SDS011;29359;53.048;8.732;2024-02-26T02:22:43;10.07;;;7.30;;
43744;SDS011;29359;53.048;8.732;2024-02-26T02:24:48;9.60;;;8.10;;
43744;SDS011;29359;53.048;8.732;2024-02-26T02:26:50;8.25;;;7.13;;
43744;SDS011;29359;53.048;8.732;2024-02-26T02:28:52;10.48;;;7.50;;
43744;SDS011;29359;53.048;8.732;2024-02-26T02:30:54;8.32;;;7.47;;
43744;SDS011;29359;53.048;8.732;2024-02-26T02:32:57;8.80;;;7.70;;
43744;SDS011;29359;53.048;8.732;2024-02-26T02:35:00;8.27;;;7.45;;
43744;SDS011;29359;53.048;8.732;2024-02-26T02:37:02;7.95;;;7.13;;
43744;SDS011;29359;53.048;8.732;2024-02-26T02:39:04;7.95;;;7.13;;
43744;SDS011;29359;53.048;8.732;2024-02-26T02:41:05;11.18;;;8.02;;
43744;SDS011;29359;53.048;8.732;2024-02-26T02:43:07;10.00;;;7.07;;
43744;SDS011;29359;53.048;8.732;2024-02-26T02:45:09;8.00;;;7.13;;
43744;SDS011;29359;53.048;8.732;2024-02-26T02:47:11;8.20;;;6.72;;
43744;SDS011;29359;53.048;8.732;2024-02-26T02:49:13;8.23;;;7.35;;
43744;SDS011;29359;53.048;8.732;2024-02-26T02:51:15;7.28;;;6.57;;
43744;SDS011;29359;53.048;8.732;2024-02-26T02:53:17;8.88;;;7.85;;
43744;SDS011;29359;53.048;8.732;2024-02-26T02:55:19;7.57;;;6.88;;
43744;SDS011;29359;53.048;8.732;2024-02-26T02:57:21;8.02;;;7.28;;
43744;SDS011;29359;53.048;8.732;2024-02-26T02:59:23;8.88;;;7.63;;
43744;SDS011;29359;53.048;8.732;2024-02-26T03:01:25;8.27;;;7.47;;
43744;SDS011;29359;53.048;8.732;2024-02-26T03:03:27;7.97;;;7.22;;
43744;SDS011;29359;53.048;8.732;2024-02-26T03:05:30;9.32;;;7.72;;
43744;SDS011;29359;53.048;8.732;2024-02-26T03:07:32;7.63;;;6.93;;
43744;SDS011;29359;53.048;8.732;2024-02-26T03:09:34;8.82;;;7.47;;
43744;SDS011;29359;53.048;8.732;2024-02-26T03:11:35;9.48;;;7.32;;
43744;SDS011;29359;53.048;8.732;2024-02-26T03:13:37;9.10;;;7.35;;
43744;SDS011;29359;53.048;8.732;2024-02-26T03:15:39;8.18;;;7.35;;
43744;SDS011;29359;53.048;8.732;2024-02-26T03:17:41;8.68;;;7.72;;
43744;SDS011;29359;53.048;8.732;2024-02-26T03:19:46;9.40;;;7.80;;
43744;SDS011;29359;53.048;8.732;2024-02-26T03:21:48;10.38;;;8.43;;
43744;SDS011;29359;53.048;8.732;2024-02-26T03:23:50;9.93;;;8.48;;
43744;SDS011;29359;53.048;8.732;2024-02-26T03:25:52;10.95;;;8.45;;
43744;SDS011;29359;53.048;8.732;2024-02-26T03:27:53;10.77;;;8.05;;
43744;SDS011;29359;53.048;8.732;2024-02-26T03:29:55;14.18;;;10.07;;
43744;SDS011;29359;53.048;8.732;2024-02-26T03:31:57;12.13;;;8.57;;
43744;SDS011;29359;53.048;8.732;2024-02-26T03:33:59;10.35;;;8.75;;
43744;SDS011;29359;53.048;8.732;2024-02-26T03:36:01;11.07;;;8.45;;
43744;SDS011;29359;53.048;8.732;2024-02-26T03:38:03;12.90;;;9.82;;
43744;SDS011;29359;53.048;8.732;2024-02-26T03:40:05;9.43;;;8.35;;
43744;SDS011;29359;53.048;8.732;2024-02-26T03:42:08;10.43;;;9.13;;
43744;SDS011;29359;53.048;8.732;2024-02-26T03:44:09;9.45;;;8.55;;
43744;SDS011;29359;53.048;8.732;2024-02-26T03:46:11;9.88;;;8.30;;
43744;SDS011;29359;53.048;8.732;2024-02-26T03:48:15;11.25;;;8.52;;
43744;SDS011;29359;53.048;8.732;2024-02-26T03:50:17;9.63;;;7.90;;
43744;SDS011;29359;53.048;8.732;2024-02-26T03:52:18;10.55;;;8.63;;
43744;SDS011;29359;53.048;8.732;2024-02-26T03:54:20;11.77;;;8.75;;
43744;SDS011;29359;53.048;8.732;2024-02-26T03:56:22;14.50;;;9.18;;
43744;SDS011;29359;53.048;8.732;2024-02-26T03:58:24;11.90;;;8.73;;
43744;SDS011;29359;53.048;8.732;2024-02-26T04:00:26;10.90;;;9.07;;
43744;SDS011;29359;53.048;8.732;2024-02-26T04:02:30;10.95;;;8.25;;
43744;SDS011;29359;53.048;8.732;2024-02-26T04:04:35;9.93;;;8.57;;
43744;SDS011;29359;53.048;8.732;2024-02-26T04:06:37;10.57;;;8.90;;
43744;SDS011;29359;53.048;8.732;2024-02-26T04:08:38;9.77;;;8.35;;
43744;SDS011;29359;53.048;8.732;2024-02-26T04:10:40;10.43;;;8.82;;
43744;SDS011;29359;53.048;8.732;2024-02-26T04:12:42;8.90;;;7.90;;
43744;SDS011;29359;53.048;8.732;2024-02-26T04:14:45;12.18;;;8.70;;
43744;SDS011;29359;53.048;8.732;2024-02-26T04:16:47;11.88;;;8.77;;
43744;SDS011;29359;53.048;8.732;2024-02-26T04:18:52;10.98;;;8.88;;
43744;SDS011;29359;53.048;8.732;2024-02-26T04:20:55;11.65;;;9.13;;
43744;SDS011;29359;53.048;8.732;2024-02-26T04:22:58;11.15;;;8.75;;
43744;SDS011;29359;53.048;8.732;2024-02-26T04:25:00;10.57;;;8.85;;
43744;SDS011;29359;53.048;8.732;2024-02-26T04:27:02;11.68;;;9.32;;
43744;SDS011;29359;53.048;8.732;2024-02-26T04:29:03;11.32;;;9.10;;
43744;SDS011;29359;53.048;8.732;2024-02-26T04:31:05;13.02;;;9.77;;
43744;SDS011;29359;53.048;8.732;2024-02-26T04:33:07;14.20;;;8.98;;
43744;SDS011;29359;53.048;8.732;2024-02-26T04:35:09;10.95;;;8.88;;
43744;SDS011;29359;53.048;8.732;2024-02-26T04:37:11;13.43;;;9.18;;
43744;SDS011;29359;53.048;8.732;2024-02-26T04:39:13;13.38;;;9.63;;
43744;SDS011;29359;53.048;8.732;2024-02-26T04:41:15;15.63;;;9.88;;
43744;SDS011;29359;53.048;8.732;2024-02-26T04:43:16;10.77;;;8.68;;
43744;SDS011;29359;53.048;8.732;2024-02-26T04:45:19;10.25;;;8.80;;
43744;SDS011;29359;53.048;8.732;2024-02-26T04:47:21;11.57;;;9.07;;
43744;SDS011;29359;53.048;8.732;2024-02-26T04:49:23;11.52;;;8.63;;
43744;SDS011;29359;53.048;8.732;2024-02-26T04:51:25;9.73;;;8.00;;
43744;SDS011;29359;53.048;8.732;2024-02-26T04:53:27;9.40;;;7.85;;
43744;SDS011;29359;53.048;8.732;2024-02-26T04:55:29;12.30;;;9.20;;
43744;SDS011;29359;53.048;8.732;2024-02-26T04:57:31;9.82;;;8.10;;
43744;SDS011;29359;53.048;8.732;2024-02-26T04:59:33;9.88;;;8.38;;
43744;SDS011;29359;53.048;8.732;2024-02-26T05:01:34;9.77;;;8.23;;
43744;SDS011;29359;53.048;8.732;2024-02-26T05:03:38;12.35;;;7.70;;
43744;SDS011;29359;53.048;8.732;2024-02-26T05:05:40;10.98;;;8.52;;
43744;SDS011;29359;53.048;8.732;2024-02-26T05:07:42;10.95;;;8.27;;
43744;SDS011;29359;53.048;8.732;2024-02-26T05:09:45;9.68;;;8.02;;
43744;SDS011;29359;53.048;8.732;2024-02-26T05:11:47;9.68;;;8.00;;
43744;SDS011;29359;53.048;8.732;2024-02-26T05:13:49;10.52;;;8.45;;
43744;SDS011;29359;53.048;8.732;2024-02-26T05:15:51;8.85;;;7.65;;
43744;SDS011;29359;53.048;8.732;2024-02-26T05:17:53;9.90;;;7.63;;
43744;SDS011;29359;53.048;8.732;2024-02-26T05:19:55;9.68;;;7.97;;
43744;SDS011;29359;53.048;8.732;2024-02-26T05:21:57;9.43;;;8.18;;
43744;SDS011;29359;53.048;8.732;2024-02-26T05:23:59;8.60;;;7.55;;
43744;SDS011;29359;53.048;8.732;2024-02-26T05:26:01;10.38;;;7.70;;
43744;SDS011;29359;53.048;8.732;2024-02-26T05:28:03;9.65;;;7.63;;
43744;SDS011;29359;53.048;8.732;2024-02-26T05:30:05;9.00;;;7.25;;
43744;SDS011;29359;53.048;8.732;2024-02-26T05:32:07;10.18;;;8.07;;
43744;SDS011;29359;53.048;8.732;2024-02-26T05:34:09;12.02;;;8.07;;
43744;SDS011;29359;53.048;8.732;2024-02-26T05:36:17;9.38;;;8.07;;
43744;SDS011;29359;53.048;8.732;2024-02-26T05:40:21;10.50;;;7.15;;
43744;SDS011;29359;53.048;8.732;2024-02-26T05:42:23;10.68;;;8.23;;
43744;SDS011;29359;53.048;8.732;2024-02-26T05:44:26;11.50;;;8.48;;
43744;SDS011;29359;53.048;8.732;2024-02-26T05:46:28;9.77;;;8.00;;
43744;SDS011;29359;53.048;8.732;2024-02-26T05:48:30;12.77;;;8.93;;
43744;SDS011;29359;53.048;8.732;2024-02-26T05:50:33;10.05;;;8.13;;
43744;SDS011;29359;53.048;8.732;2024-02-26T05:52:35;10.55;;;8.55;;
43744;SDS011;29359;53.048;8.732;2024-02-26T05:54:37;11.77;;;8.90;;
43744;SDS011;29359;53.048;8.732;2024-02-26T05:56:39;11.88;;;9.00;;
43744;SDS011;29359;53.048;8.732;2024-02-26T05:58:41;12.65;;;9.25;;
43744;SDS011;29359;53.048;8.732;2024-02-26T06:00:42;17.20;;;9.38;;
43744;SDS011;29359;53.048;8.732;2024-02-26T06:02:45;12.88;;;9.15;;
43744;SDS011;29359;53.048;8.732;2024-02-26T06:04:46;17.08;;;11.00;;
43744;SDS011;29359;53.048;8.732;2024-02-26T06:06:48;15.60;;;10.07;;
43744;SDS011;29359;53.048;8.732;2024-02-26T06:08:51;20.75;;;12.18;;
43744;SDS011;29359;53.048;8.732;2024-02-26T06:10:53;18.92;;;11.85;;
43744;SDS011;29359;53.048;8.732;2024-02-26T06:12:55;22.08;;;12.65;;
43744;SDS011;29359;53.048;8.732;2024-02-26T06:14:56;19.42;;;12.15;;
43744;SDS011;29359;53.048;8.732;2024-02-26T06:16:59;17.30;;;10.68;;
43744;SDS011;29359;53.048;8.732;2024-02-26T06:19:01;20.02;;;12.23;;
43744;SDS011;29359;53.048;8.732;2024-02-26T06:21:03;19.20;;;12.05;;
43744;SDS011;29359;53.048;8.732;2024-02-26T06:23:05;23.05;;;13.18;;
43744;SDS011;29359;53.048;8.732;2024-02-26T06:25:07;22.92;;;13.27;;
43744;SDS011;29359;53.048;8.732;2024-02-26T06:27:09;22.88;;;13.80;;
43744;SDS011;29359;53.048;8.732;2024-02-26T06:29:11;24.75;;;13.20;;
43744;SDS011;29359;53.048;8.732;2024-02-26T06:31:12;23.63;;;13.20;;
43744;SDS011;29359;53.048;8.732;2024-02-26T06:33:14;26.23;;;13.98;;
43744;SDS011;29359;53.048;8.732;2024-02-26T06:35:16;26.15;;;14.50;;
43744;SDS011;29359;53.048;8.732;2024-02-26T06:37:18;29.52;;;14.43;;
43744;SDS011;29359;53.048;8.732;2024-02-26T06:39:19;27.05;;;13.35;;
43744;SDS011;29359;53.048;8.732;2024-02-26T06:41:21;26.77;;;13.95;;
43744;SDS011;29359;53.048;8.732;2024-02-26T06:43:28;22.98;;;13.77;;
43744;SDS011;29359;53.048;8.732;2024-02-26T06:45:30;25.38;;;14.40;;
43744;SDS011;29359;53.048;8.732;2024-02-26T06:47:32;23.30;;;13.57;;
43744;SDS011;29359;53.048;8.732;2024-02-26T06:49:34;25.35;;;13.65;;
43744;SDS011;29359;53.048;8.732;2024-02-26T06:51:36;24.33;;;13.27;;
43744;SDS011;29359;53.048;8.732;2024-02-26T06:53:37;24.75;;;13.50;;
43744;SDS011;29359;53.048;8.732;2024-02-26T06:55:39;27.17;;;15.38;;
43744;SDS011;29359;53.048;8.732;2024-02-26T06:57:42;24.48;;;14.43;;
43744;SDS011;29359;53.048;8.732;2024-02-26T06:59:43;28.25;;;14.90;;
43744;SDS011;29359;53.048;8.732;2024-02-26T07:01:48;26.45;;;13.48;;
43744;SDS011;29359;53.048;8.732;2024-02-26T07:03:50;29.10;;;15.20;;
43744;SDS011;29359;53.048;8.732;2024-02-26T07:05:52;27.60;;;15.52;;
43744;SDS011;29359;53.048;8.732;2024-02-26T07:07:54;26.17;;;14.40;;
43744;SDS011;29359;53.048;8.732;2024-02-26T07:09:55;24.60;;;14.68;;
43744;SDS011;29359;53.048;8.732;2024-02-26T07:11:57;28.67;;;15.75;;
43744;SDS011;29359;53.048;8.732;2024-02-26T07:14:02;26.42;;;15.02;;
43744;SDS011;29359;53.048;8.732;2024-02-26T07:16:04;27.92;;;14.95;;
43744;SDS011;29359;53.048;8.732;2024-02-26T07:18:06;25.45;;;14.23;;
43744;SDS011;29359;53.048;8.732;2024-02-26T07:20:08;27.83;;;15.60;;
43744;SDS011;29359;53.048;8.732;2024-02-26T07:22:11;26.70;;;14.07;;
43744;SDS011;29359;53.048;8.732;2024-02-26T07:24:12;31.92;;;15.52;;
43744;SDS011;29359;53.048;8.732;2024-02-26T07:26:15;32.08;;;16.25;;
43744;SDS011;29359;53.048;8.732;2024-02-26T07:28:20;28.77;;;15.73;;
43744;SDS011;29359;53.048;8.732;2024-02-26T07:30:21;30.52;;;17.02;;
43744;SDS011;29359;53.048;8.732;2024-02-26T07:32:23;25.75;;;15.30;;
43744;SDS011;29359;53.048;8.732;2024-02-26T07:34:25;28.88;;;15.77;;
43744;SDS011;29359;53.048;8.732;2024-02-26T07:36:31;33.78;;;16.67;;
43744;SDS011;29359;53.048;8.732;2024-02-26T07:38:32;30.92;;;17.02;;
43744;SDS011;29359;53.048;8.732;2024-02-26T07:40:44;35.13;;;16.83;;
43744;SDS011;29359;53.048;8.732;2024-02-26T07:42:59;31.05;;;15.93;;
43744;SDS011;29359;53.048;8.732;2024-02-26T07:45:02;32.70;;;16.92;;
43744;SDS011;29359;53.048;8.732;2024-02-26T07:47:04;32.20;;;16.50;;
43744;SDS011;29359;53.048;8.732;2024-02-26T07:49:05;32.08;;;16.80;;
43744;SDS011;29359;53.048;8.732;2024-02-26T07:51:07;32.00;;;17.23;;
43744;SDS011;29359;53.048;8.732;2024-02-26T07:53:09;32.40;;;17.50;;
43744;SDS011;29359;53.048;8.732;2024-02-26T07:55:11;33.47;;;16.05;;
43744;SDS011;29359;53.048;8.732;2024-02-26T07:57:13;30.38;;;16.35;;
43744;SDS011;29359;53.048;8.732;2024-02-26T07:59:18;37.03;;;17.80;;
43744;SDS011;29359;53.048;8.732;2024-02-26T08:01:20;32.53;;;17.45;;
43744;SDS011;29359;53.048;8.732;2024-02-26T08:03:21;37.47;;;18.60;;
43744;SDS011;29359;53.048;8.732;2024-02-26T08:05:23;38.42;;;18.27;;
43744;SDS011;29359;53.048;8.732;2024-02-26T08:07:26;32.85;;;16.50;;
43744;SDS011;29359;53.048;8.732;2024-02-26T08:09:28;35.80;;;18.33;;
43744;SDS011;29359;53.048;8.732;2024-02-26T08:11:30;32.65;;;16.38;;
43744;SDS011;29359;53.048;8.732;2024-02-26T08:13:31;32.00;;;16.60;;
43744;SDS011;29359;53.048;8.732;2024-02-26T08:15:34;31.27;;;18.08;;
43744;SDS011;29359;53.048;8.732;2024-02-26T08:17:36;31.50;;;17.95;;
43744;SDS011;29359;53.048;8.732;2024-02-26T08:19:38;33.10;;;17.05;;
43744;SDS011;29359;53.048;8.732;2024-02-26T08:21:40;33.28;;;16.35;;
43744;SDS011;29359;53.048;8.732;2024-02-26T08:23:43;31.48;;;16.40;;
43744;SDS011;29359;53.048;8.732;2024-02-26T08:25:45;28.23;;;15.68;;
43744;SDS011;29359;53.048;8.732;2024-02-26T08:27:47;33.00;;;16.60;;
43744;SDS011;29359;53.048;8.732;2024-02-26T08:29:49;34.08;;;17.95;;
43744;SDS011;29359;53.048;8.732;2024-02-26T08:31:50;31.35;;;16.42;;
43744;SDS011;29359;53.048;8.732;2024-02-26T08:33:52;33.65;;;16.92;;
43744;SDS011;29359;53.048;8.732;2024-02-26T08:35:54;33.75;;;17.10;;
43744;SDS011;29359;53.048;8.732;2024-02-26T08:37:56;27.70;;;16.38;;
43744;SDS011;29359;53.048;8.732;2024-02-26T08:39:58;31.17;;;16.92;;
43744;SDS011;29359;53.048;8.732;2024-02-26T08:42:05;28.77;;;15.98;;
43744;SDS011;29359;53.048;8.732;2024-02-26T08:44:07;27.02;;;15.68;;
43744;SDS011;29359;53.048;8.732;2024-02-26T08:46:09;27.70;;;16.45;;
43744;SDS011;29359;53.048;8.732;2024-02-26T08:48:12;29.08;;;16.55;;
43744;SDS011;29359;53.048;8.732;2024-02-26T08:50:14;32.15;;;15.50;;
43744;SDS011;29359;53.048;8.732;2024-02-26T08:52:16;33.35;;;17.17;;
43744;SDS011;29359;53.048;8.732;2024-02-26T08:54:17;26.23;;;15.00;;
43744;SDS011;29359;53.048;8.732;2024-02-26T08:56:19;27.35;;;14.88;;
43744;SDS011;29359;53.048;8.732;2024-02-26T08:58:22;29.90;;;16.48;;
43744;SDS011;29359;53.048;8.732;2024-02-26T09:00:24;32.80;;;17.73;;
43744;SDS011;29359;53.048;8.732;2024-02-26T09:02:26;27.65;;;15.95;;
43744;SDS011;29359;53.048;8.732;2024-02-26T09:04:28;27.58;;;16.95;;
43744;SDS011;29359;53.048;8.732;2024-02-26T09:06:30;31.33;;;17.10;;
43744;SDS011;29359;53.048;8.732;2024-02-26T09:08:32;29.50;;;15.38;;
43744;SDS011;29359;53.048;8.732;2024-02-26T09:10:34;27.45;;;16.05;;
43744;SDS011;29359;53.048;8.732;2024-02-26T09:12:36;27.63;;;16.08;;
43744;SDS011;29359;53.048;8.732;2024-02-26T09:14:39;25.85;;;14.85;;
43744;SDS011;29359;53.048;8.732;2024-02-26T09:16:41;25.13;;;15.20;;
43744;SDS011;29359;53.048;8.732;2024-02-26T09:18:43;26.27;;;15.20;;
43744;SDS011;29359;53.048;8.732;2024-02-26T09:20:45;27.77;;;15.95;;
43744;SDS011;29359;53.048;8.732;2024-02-26T09:22:47;29.77;;;16.48;;
43744;SDS011;29359;53.048;8.732;2024-02-26T09:24:49;28.85;;;15.65;;
43744;SDS011;29359;53.048;8.732;2024-02-26T09:26:52;27.23;;;15.38;;
43744;SDS011;29359;53.048;8.732;2024-02-26T09:28:54;32.03;;;15.20;;
43744;SDS011;29359;53.048;8.732;2024-02-26T09:30:56;23.00;;;14.13;;
43744;SDS011;29359;53.048;8.732;2024-02-26T09:32:57;25.17;;;14.05;;
43744;SDS011;29359;53.048;8.732;2024-02-26T09:34:59;22.85;;;13.15;;
43744;SDS011;29359;53.048;8.732;2024-02-26T09:37:01;25.20;;;14.05;;
43744;SDS011;29359;53.048;8.732;2024-02-26T09:39:15;24.05;;;13.57;;
43744;SDS011;29359;53.048;8.732;2024-02-26T09:41:23;24.80;;;14.13;;
43744;SDS011;29359;53.048;8.732;2024-02-26T09:43:25;24.90;;;12.55;;
43744;SDS011;29359;53.048;8.732;2024-02-26T09:45:33;18.33;;;11.50;;
43744;SDS011;29359;53.048;8.732;2024-02-26T09:47:36;21.42;;;13.05;;
43744;SDS011;29359;53.048;8.732;2024-02-26T09:49:39;20.52;;;13.00;;
43744;SDS011;29359;53.048;8.732;2024-02-26T09:51:41;21.95;;;12.77;;
43744;SDS011;29359;53.048;8.732;2024-02-26T09:53:44;19.58;;;12.48;;
43744;SDS011;29359;53.048;8.732;2024-02-26T09:55:48;20.33;;;12.48;;
43744;SDS011;29359;53.048;8.732;2024-02-26T09:57:51;16.23;;;11.43;;
43744;SDS011;29359;53.048;8.732;2024-02-26T09:59:53;20.05;;;11.65;;
43744;SDS011;29359;53.048;8.732;2024-02-26T10:02:00;19.23;;;11.45;;
43744;SDS011;29359;53.048;8.732;2024-02-26T10:04:04;19.63;;;11.15;;
43744;SDS011;29359;53.048;8.732;2024-02-26T10:06:07;19.20;;;12.20;;
43744;SDS011;29359;53.048;8.732;2024-02-26T10:08:10;21.60;;;12.00;;
43744;SDS011;29359;53.048;8.732;2024-02-26T10:10:15;18.35;;;11.23;;
43744;SDS011;29359;53.048;8.732;2024-02-26T10:12:18;17.63;;;11.38;;
43744;SDS011;29359;53.048;8.732;2024-02-26T10:14:21;18.70;;;10.63;;
43744;SDS011;29359;53.048;8.732;2024-02-26T10:16:26;13.73;;;9.20;;
43744;SDS011;29359;53.048;8.732;2024-02-26T10:18:51;14.43;;;9.60;;
43744;SDS011;29359;53.048;8.732;2024-02-26T10:21:00;14.75;;;9.27;;
43744;SDS011;29359;53.048;8.732;2024-02-26T10:23:03;12.82;;;8.82;;
43744;SDS011;29359;53.048;8.732;2024-02-26T10:25:06;14.65;;;10.07;;
43744;SDS011;29359;53.048;8.732;2024-02-26T10:27:09;11.52;;;8.77;;
43744;SDS011;29359;53.048;8.732;2024-02-26T10:29:11;11.77;;;8.48;;
43744;SDS011;29359;53.048;8.732;2024-02-26T10:31:13;12.70;;;9.27;;
43744;SDS011;29359;53.048;8.732;2024-02-26T10:33:15;12.52;;;9.38;;
43744;SDS011;29359;53.048;8.732;2024-02-26T10:35:18;11.40;;;8.77;;
43744;SDS011;29359;53.048;8.732;2024-02-26T10:37:22;14.15;;;9.52;;
43744;SDS011;29359;53.048;8.732;2024-02-26T10:39:27;13.65;;;8.93;;
43744;SDS011;29359;53.048;8.732;2024-02-26T10:41:29;11.80;;;8.73;;
43744;SDS011;29359;53.048;8.732;2024-02-26T10:43:30;16.25;;;9.48;;
43744;SDS011;29359;53.048;8.732;2024-02-26T10:45:32;14.50;;;9.65;;
43744;SDS011;29359;53.048;8.732;2024-02-26T10:47:38;14.30;;;9.57;;
43744;SDS011;29359;53.048;8.732;2024-02-26T10:49:44;10.02;;;8.40;;
43744;SDS011;29359;53.048;8.732;2024-02-26T10:51:55;11.73;;;7.70;;
43744;SDS011;29359;53.048;8.732;2024-02-26T10:54:01;11.50;;;8.32;;
43744;SDS011;29359;53.048;8.732;2024-02-26T10:56:08;12.68;;;8.48;;
43744;SDS011;29359;53.048;8.732;2024-02-26T10:58:13;12.55;;;8.75;;
43744;SDS011;29359;53.048;8.732;2024-02-26T11:00:16;11.55;;;8.02;;
43744;SDS011;29359;53.048;8.732;2024-02-26T11:02:18;10.93;;;8.02;;
43744;SDS011;29359;53.048;8.732;2024-02-26T11:04:20;14.68;;;8.43;;
43744;SDS011;29359;53.048;8.732;2024-02-26T11:06:23;13.52;;;9.23;;
43744;SDS011;29359;53.048;8.732;2024-02-26T11:08:27;14.27;;;9.32;;
43744;SDS011;29359;53.048;8.732;2024-02-26T11:10:31;13.10;;;9.07;;
43744;SDS011;29359;53.048;8.732;2024-02-26T11:12:33;13.88;;;8.73;;
43744;SDS011;29359;53.048;8.732;2024-02-26T11:14:39;12.30;;;8.45;;
43744;SDS011;29359;53.048;8.732;2024-02-26T11:16:41;13.73;;;9.02;;
43744;SDS011;29359;53.048;8.732;2024-02-26T11:18:46;11.73;;;8.52;;
43744;SDS011;29359;53.048;8.732;2024-02-26T11:20:51;13.95;;;10.00;;
43744;SDS011;29359;53.048;8.732;2024-02-26T11:22:58;15.10;;;8.68;;
43744;SDS011;29359;53.048;8.732;2024-02-26T11:24:59;15.10;;;8.77;;
43744;SDS011;29359;53.048;8.732;2024-02-26T11:27:03;12.60;;;8.80;;
43744;SDS011;29359;53.048;8.732;2024-02-26T11:29:08;12.70;;;8.93;;
43744;SDS011;29359;53.048;8.732;2024-02-26T11:31:12;13.93;;;9.20;;
43744;SDS011;29359;53.048;8.732;2024-02-26T11:33:14;11.38;;;8.57;;
43744;SDS011;29359;53.048;8.732;2024-02-26T11:35:17;12.63;;;8.88;;
43744;SDS011;29359;53.048;8.732;2024-02-26T11:37:20;11.85;;;8.68;;
43744;SDS011;29359;53.048;8.732;2024-02-26T11:39:22;12.73;;;9.50;;
43744;SDS011;29359;53.048;8.732;2024-02-26T11:41:25;12.02;;;7.93;;
43744;SDS011;29359;53.048;8.732;2024-02-26T11:46:00;15.15;;;9.23;;
43744;SDS011;29359;53.048;8.732;2024-02-26T11:48:02;16.02;;;9.10;;
43744;SDS011;29359;53.048;8.732;2024-02-26T11:52:38;11.57;;;8.32;;
43744;SDS011;29359;53.048;8.732;2024-02-26T11:54:47;11.43;;;9.00;;
43744;SDS011;29359;53.048;8.732;2024-02-26T11:56:50;13.82;;;9.25;;
43744;SDS011;29359;53.048;8.732;2024-02-26T12:03:38;14.13;;;8.18;;
43744;SDS011;29359;53.048;8.732;2024-02-26T12:05:40;10.93;;;8.18;;
43744;SDS011;29359;53.048;8.732;2024-02-26T12:07:47;11.85;;;7.53;;
43744;SDS011;29359;53.048;8.732;2024-02-26T12:12:35;11.90;;;8.05;;
43744;SDS011;29359;53.048;8.732;2024-02-26T12:14:39;11.40;;;7.53;;
43744;SDS011;29359;53.048;8.732;2024-02-26T12:16:42;8.77;;;7.43;;
43744;SDS011;29359;53.048;8.732;2024-02-26T12:18:46;13.57;;;8.23;;
43744;SDS011;29359;53.048;8.732;2024-02-26T12:20:58;10.45;;;7.43;;